createdAt,value
2022-09-06T00:01:47.711Z,1.00
2022-09-06T00:04:17.635Z,1.00
2022-09-06T00:06:47.537Z,1.00
2022-09-06T00:09:17.471Z,1.00
2022-09-06T00:11:47.418Z,1.00
2022-09-06T00:14:19.824Z,1.00
2022-09-06T00:16:49.663Z,1.00
2022-09-06T00:19:19.506Z,1.00
2022-09-06T00:21:49.358Z,1.00
2022-09-06T00:24:19.211Z,1.00
2022-09-06T00:26:49.047Z,1.00
2022-09-06T00:29:21.506Z,1.00
2022-09-06T00:31:51.314Z,1.00
2022-09-06T00:34:21.141Z,1.00
2022-09-06T00:36:50.966Z,1.00
2022-09-06T00:39:20.838Z,1.00
2022-09-06T00:41:50.725Z,1.00
2022-09-06T00:44:23.271Z,1.00
2022-09-06T00:46:55.365Z,1.00
2022-09-06T00:49:30.410Z,1.00
2022-09-06T00:52:06.120Z,1.00
2022-09-06T00:54:36.227Z,1.00
2022-09-06T00:57:06.675Z,1.00
2022-09-06T00:59:41.883Z,1.00
2022-09-06T01:02:12.395Z,1.00
2022-09-06T01:04:45.221Z,1.00
2022-09-06T01:07:30.362Z,1.00
2022-09-06T01:10:16.283Z,1.00
2022-09-06T01:12:52.787Z,1.00
2022-09-06T01:15:35.352Z,1.00
2022-09-06T01:18:19.482Z,1.00
2022-09-06T01:20:58.271Z,1.00
2022-09-06T01:23:55.059Z,1.00
2022-09-06T01:27:09.062Z,1.00
2022-09-06T01:29:47.717Z,1.00
2022-09-06T01:32:23.286Z,1.00
2022-09-06T01:34:58.048Z,1.00
2022-09-06T01:37:28.532Z,1.00
2022-09-06T01:39:58.476Z,1.00
2022-09-06T01:42:32.748Z,1.00
2022-09-06T01:45:08.426Z,1.00
2022-09-06T01:47:43.019Z,1.00
2022-09-06T01:50:33.045Z,1.00
2022-09-06T01:53:14.662Z,1.00
2022-09-06T01:55:52.287Z,1.00
2022-09-06T01:58:47.985Z,1.00
2022-09-06T02:01:25.271Z,1.00
2022-09-06T02:04:02.059Z,1.00
2022-09-06T02:06:35.464Z,1.00
2022-09-06T02:09:09.228Z,1.00
2022-09-06T02:11:45.222Z,1.00
2022-09-06T02:14:19.703Z,1.00
2022-09-06T02:16:53.690Z,1.00
2022-09-06T02:19:29.867Z,1.00
2022-09-06T02:22:01.001Z,1.00
2022-09-06T02:24:34.653Z,1.00
2022-09-06T02:27:04.564Z,1.00
2022-09-06T02:29:34.397Z,1.00
2022-09-06T02:32:13.139Z,1.00
2022-09-06T02:34:46.199Z,6.70
2022-09-06T02:37:19.415Z,20.60
2022-09-06T02:39:49.298Z,29.20
2022-09-06T02:42:19.923Z,34.50
2022-09-06T02:44:49.756Z,39.40
2022-09-06T02:47:22.194Z,38.60
2022-09-06T02:49:52.058Z,35.60
2022-09-06T02:52:21.904Z,39.50
2022-09-06T02:54:51.753Z,41.90
2022-09-06T02:57:21.591Z,39.60
2022-09-06T02:59:52.041Z,40.60
2022-09-06T03:02:24.487Z,42.90
2022-09-06T03:04:54.393Z,43.30
2022-09-06T03:07:24.388Z,45.00
2022-09-06T03:09:54.297Z,43.20
2022-09-06T03:12:24.105Z,41.90
2022-09-06T03:14:55.086Z,43.70
2022-09-06T03:17:27.720Z,45.00
2022-09-06T03:19:57.542Z,47.10
2022-09-06T03:22:27.565Z,48.60
2022-09-06T03:24:57.477Z,50.90
2022-09-06T03:27:27.748Z,51.40
2022-09-06T03:29:57.561Z,52.20
2022-09-06T03:32:30.143Z,50.90
2022-09-06T03:35:00.018Z,51.30
2022-09-06T03:37:29.864Z,51.60
2022-09-06T03:39:59.928Z,52.10
2022-09-06T03:42:30.238Z,51.80
2022-09-06T03:45:00.083Z,52.10
2022-09-06T03:47:32.484Z,52.10
2022-09-06T03:50:02.300Z,52.40
2022-09-06T03:52:32.125Z,52.30
2022-09-06T03:55:02.885Z,53.10
2022-09-06T03:57:32.719Z,54.90
2022-09-06T04:00:02.636Z,55.70
2022-09-06T04:02:35.063Z,56.00
2022-09-06T04:05:04.960Z,56.50
2022-09-06T04:07:34.819Z,57.80
2022-09-06T04:10:04.655Z,58.30
2022-09-06T04:12:34.949Z,58.60
2022-09-06T04:15:04.835Z,58.90
2022-09-06T04:17:37.370Z,59.60
2022-09-06T04:20:08.932Z,59.70
2022-09-06T04:22:38.766Z,59.90
2022-09-06T04:25:10.324Z,60.30
2022-09-06T04:27:40.194Z,60.00
2022-09-06T04:30:11.674Z,60.20
2022-09-06T04:32:44.079Z,60.20
2022-09-06T04:35:13.935Z,60.10
2022-09-06T04:37:43.894Z,60.20
2022-09-06T04:40:14.592Z,59.50
2022-09-06T04:42:44.409Z,59.00
2022-09-06T04:45:14.759Z,58.60
2022-09-06T04:47:47.172Z,58.40
2022-09-06T04:50:16.996Z,55.40
2022-09-06T04:52:46.922Z,53.10
2022-09-06T04:55:16.886Z,52.20
2022-09-06T04:57:51.069Z,51.40
2022-09-06T05:00:21.421Z,51.60
2022-09-06T05:02:53.901Z,51.80
2022-09-06T05:05:24.294Z,52.20
2022-09-06T05:07:55.055Z,52.10
2022-09-06T05:10:25.763Z,52.10
2022-09-06T05:12:57.272Z,52.10
2022-09-06T05:15:27.376Z,52.30
2022-09-06T05:18:06.651Z,52.80
2022-09-06T05:20:37.040Z,52.10
2022-09-06T05:23:06.857Z,53.20
2022-09-06T05:25:36.661Z,53.60
2022-09-06T05:28:06.495Z,52.30
2022-09-06T05:30:36.322Z,53.00
2022-09-06T05:33:08.726Z,53.60
2022-09-06T05:35:38.691Z,53.60
2022-09-06T05:38:08.595Z,52.30
2022-09-06T05:40:38.438Z,52.40
2022-09-06T05:43:08.293Z,51.40
2022-09-06T05:45:38.268Z,49.10
2022-09-06T05:48:10.926Z,49.90
2022-09-06T05:50:40.764Z,48.50
2022-09-06T05:53:10.646Z,47.10
2022-09-06T05:55:43.038Z,45.80
2022-09-06T05:58:13.102Z,47.20
2022-09-06T06:00:43.634Z,47.60
2022-09-06T06:03:16.031Z,46.80
2022-09-06T06:05:49.501Z,45.80
2022-09-06T06:08:19.332Z,44.30
2022-09-06T06:10:49.225Z,44.70
2022-09-06T06:13:19.064Z,41.90
2022-09-06T06:15:49.030Z,42.60
2022-09-06T06:18:21.507Z,42.50
2022-09-06T06:20:51.797Z,43.10
2022-09-06T06:23:21.641Z,42.50
2022-09-06T06:25:51.478Z,39.40
2022-09-06T06:28:21.418Z,41.60
2022-09-06T06:30:51.400Z,39.90
2022-09-06T06:33:23.961Z,36.20
2022-09-06T06:36:03.814Z,35.70
2022-09-06T06:38:34.914Z,34.70
2022-09-06T06:41:06.986Z,30.80
2022-09-06T06:43:38.901Z,30.00
2022-09-06T06:46:10.991Z,27.20
2022-09-06T06:48:44.648Z,26.40
2022-09-06T06:51:16.778Z,25.80
2022-09-06T06:53:47.525Z,24.20
2022-09-06T06:56:19.438Z,24.20
2022-09-06T06:58:52.411Z,23.20
2022-09-06T07:01:24.887Z,20.70
2022-09-06T07:03:58.137Z,17.60
2022-09-06T07:09:18.823Z,11.90
2022-09-06T07:11:48.781Z,13.30
2022-09-06T07:14:18.676Z,14.70
2022-09-06T07:16:49.397Z,14.90
2022-09-06T07:22:14.730Z,15.70
2022-09-06T07:24:44.836Z,12.10
2022-09-06T07:30:04.541Z,13.40
2022-09-06T07:32:36.823Z,14.90
2022-09-06T07:35:12.328Z,15.40
2022-09-06T07:37:42.235Z,13.00
2022-09-06T07:40:13.636Z,13.50
2022-09-06T07:42:43.557Z,12.70
2022-09-06T07:45:13.835Z,13.00
2022-09-06T07:47:59.346Z,11.10
2022-09-06T07:50:49.443Z,10.30
2022-09-06T07:53:29.332Z,9.50
2022-09-06T07:56:02.098Z,10.10
2022-09-06T07:58:32.903Z,7.30
2022-09-06T08:01:31.187Z,6.60
2022-09-06T08:04:02.463Z,5.50
2022-09-06T08:09:26.405Z,2.80
2022-09-06T08:11:56.276Z,1.00
2022-09-06T08:14:26.112Z,2.00
2022-09-06T08:16:56.013Z,1.00
2022-09-06T08:19:26.296Z,1.00
2022-09-06T08:21:59.935Z,1.00
2022-09-06T08:24:29.885Z,1.00
2022-09-06T08:26:59.733Z,1.00
2022-09-06T08:29:29.771Z,1.00
2022-09-06T08:31:59.670Z,1.00
2022-09-06T08:34:29.755Z,1.00
2022-09-06T08:37:02.263Z,1.00
2022-09-06T08:39:35.250Z,1.00
2022-09-06T08:42:07.632Z,1.00
2022-09-06T08:44:56.302Z,1.00
2022-09-06T08:47:27.211Z,1.00
2022-09-06T08:49:59.390Z,1.00
2022-09-06T08:53:06.542Z,1.00
2022-09-06T08:55:41.647Z,1.00
2022-09-06T08:58:34.830Z,1.00
2022-09-06T09:01:08.845Z,1.00
2022-09-06T09:03:39.364Z,1.00
2022-09-06T09:06:11.443Z,1.00
2022-09-06T09:08:49.315Z,1.00
2022-09-06T09:11:21.966Z,1.00
2022-09-06T09:13:59.220Z,1.00
2022-09-06T09:16:29.408Z,1.00
2022-09-06T09:19:01.904Z,1.00
2022-09-06T09:21:35.550Z,1.00
2022-09-06T09:24:10.107Z,1.00
2022-09-06T09:26:46.933Z,1.00
2022-09-06T09:29:17.965Z,1.00
2022-09-06T09:31:53.752Z,1.00
2022-09-06T09:34:33.757Z,1.00
2022-09-06T09:40:17.357Z,1.00
2022-09-06T09:42:47.534Z,1.00
2022-09-06T09:45:29.028Z,1.00
2022-09-06T09:47:59.507Z,1.00
2022-09-06T09:50:32.114Z,1.00
2022-09-06T09:53:12.066Z,1.00
2022-09-06T09:55:45.781Z,1.00
2022-09-06T09:58:27.082Z,1.00
2022-09-06T10:01:12.987Z,1.00
2022-09-06T10:09:25.355Z,1.00
2022-09-06T10:12:01.862Z,1.00
2022-09-06T10:14:34.340Z,1.00
2022-09-06T10:17:04.116Z,1.00
2022-09-06T10:19:44.166Z,1.00
2022-09-06T10:22:25.669Z,1.00
2022-09-06T10:25:31.635Z,1.00
2022-09-06T10:28:21.509Z,1.00
2022-09-06T10:31:04.213Z,1.00
2022-09-06T10:33:43.722Z,1.00
2022-09-06T10:36:13.519Z,1.00
2022-09-06T10:39:03.654Z,1.00
2022-09-06T10:41:45.228Z,1.00
2022-09-06T10:44:31.755Z,1.00
2022-09-06T10:47:11.569Z,1.00
2022-09-06T10:49:43.640Z,1.00
2022-09-06T10:52:20.115Z,1.00
2022-09-06T10:54:49.959Z,1.00
2022-09-06T11:00:19.824Z,1.00
2022-09-06T11:05:53.700Z,1.00
2022-09-06T11:11:23.211Z,1.00
2022-09-06T11:13:53.366Z,1.00
2022-09-06T11:16:30.740Z,1.00
2022-09-06T11:19:04.730Z,1.00
2022-09-06T11:21:49.397Z,1.00
2022-09-06T11:24:25.801Z,1.00
2022-09-06T11:27:07.195Z,1.00
2022-09-06T11:29:42.261Z,1.00
2022-09-06T11:32:36.971Z,1.00
2022-09-06T11:35:11.200Z,1.00
2022-09-06T11:37:43.929Z,1.00
2022-09-06T11:40:26.926Z,1.00
2022-09-06T11:43:12.929Z,1.00
2022-09-06T11:45:48.439Z,1.00
2022-09-06T11:49:03.511Z,1.00
2022-09-06T11:51:39.380Z,1.00
2022-09-06T11:54:43.633Z,1.00
2022-09-06T11:57:18.621Z,1.00
2022-09-06T12:00:04.685Z,1.00
2022-09-06T12:02:38.068Z,1.00
2022-09-06T12:05:26.076Z,1.00
2022-09-06T12:08:15.089Z,1.00
2022-09-06T12:10:58.202Z,1.00
2022-09-06T12:13:44.286Z,1.00
2022-09-06T12:16:14.976Z,1.00
2022-09-06T12:19:06.205Z,1.00
2022-09-06T12:21:42.789Z,1.00
2022-09-06T12:24:47.904Z,1.00
2022-09-06T12:27:19.233Z,1.00
2022-09-06T12:30:01.797Z,1.00
2022-09-06T12:32:37.167Z,1.00
2022-09-06T12:38:06.913Z,1.00
2022-09-06T12:40:40.870Z,1.00
2022-09-06T12:43:13.129Z,1.00
2022-09-06T12:45:46.361Z,1.00
2022-09-06T12:48:29.748Z,1.00
2022-09-06T12:51:06.583Z,1.00
2022-09-06T12:53:39.708Z,1.00
2022-09-06T12:56:12.418Z,1.00
2022-09-06T12:58:42.595Z,1.00
2022-09-06T13:01:18.452Z,1.00
2022-09-06T13:03:55.959Z,1.00
2022-09-06T13:06:29.291Z,1.00
2022-09-06T13:09:02.301Z,1.00
2022-09-06T13:11:35.635Z,1.00
2022-09-06T13:14:14.385Z,1.00
2022-09-06T13:16:48.120Z,1.00
2022-09-06T13:19:20.031Z,1.00
2022-09-06T13:21:50.146Z,1.00
2022-09-06T13:24:28.442Z,1.00
2022-09-06T13:26:58.212Z,1.00
2022-09-06T13:29:33.229Z,1.00
2022-09-06T13:32:09.119Z,1.00
2022-09-06T13:34:39.169Z,1.00
2022-09-06T13:37:11.865Z,1.00
2022-09-06T13:39:46.618Z,1.00
2022-09-06T13:42:29.017Z,1.00
2022-09-06T13:45:02.162Z,1.00
2022-09-06T13:47:32.853Z,1.00
2022-09-06T13:50:03.165Z,1.00
2022-09-06T13:52:33.164Z,1.00
2022-09-06T13:55:07.163Z,1.00
2022-09-06T13:57:36.785Z,1.00
2022-09-06T14:00:07.707Z,1.00
2022-09-06T14:02:37.972Z,1.00
2022-09-06T14:05:08.193Z,1.00
2022-09-06T14:07:38.479Z,1.00
2022-09-06T14:10:12.777Z,1.00
2022-09-06T14:12:42.787Z,1.00
2022-09-06T14:15:13.376Z,1.00
2022-09-06T14:17:43.368Z,1.00
2022-09-06T14:20:13.988Z,1.00
2022-09-06T14:22:44.055Z,1.00
2022-09-06T14:25:17.074Z,1.00
2022-09-06T14:27:48.513Z,1.00
2022-09-06T14:30:18.763Z,1.00
2022-09-06T14:32:48.595Z,1.00
2022-09-06T14:35:18.515Z,1.00
2022-09-06T14:37:48.373Z,1.00
2022-09-06T14:40:20.906Z,1.00
2022-09-06T14:42:50.888Z,1.00
2022-09-06T14:45:21.454Z,1.00
2022-09-06T14:47:51.392Z,1.00
2022-09-06T14:50:21.736Z,1.00
2022-09-06T14:52:51.683Z,1.00
2022-09-06T14:55:24.746Z,1.00
2022-09-06T14:57:54.700Z,1.00
2022-09-06T15:00:25.249Z,1.00
2022-09-06T15:02:56.096Z,1.00
2022-09-06T15:05:26.118Z,1.00
2022-09-06T15:07:56.173Z,1.00
2022-09-06T15:10:29.201Z,1.00
2022-09-06T15:12:59.191Z,1.00
2022-09-06T15:15:29.229Z,1.00
2022-09-06T15:17:59.240Z,1.00
2022-09-06T15:20:32.346Z,1.00
2022-09-06T15:23:28.176Z,1.00
2022-09-06T15:25:57.119Z,1.00
2022-09-06T15:28:27.127Z,1.00
2022-09-06T15:31:14.492Z,1.00
2022-09-06T15:33:48.909Z,1.00
2022-09-06T15:36:19.353Z,1.00
2022-09-06T15:38:50.985Z,1.00
2022-09-06T15:41:25.268Z,1.00
2022-09-06T15:43:57.797Z,1.00
2022-09-06T15:46:46.803Z,1.00
2022-09-06T15:49:18.847Z,1.00
2022-09-06T15:51:49.338Z,1.00
2022-09-06T15:54:41.585Z,1.00
2022-09-06T15:57:14.439Z,1.00
2022-09-06T15:59:44.545Z,1.00
2022-09-06T16:02:14.861Z,1.00
2022-09-06T16:04:44.966Z,1.00
2022-09-06T16:07:15.246Z,1.00
2022-09-06T16:09:45.406Z,1.00
2022-09-06T16:12:17.939Z,1.00
2022-09-06T16:14:47.992Z,1.00
2022-09-06T16:17:17.907Z,1.00
2022-09-06T16:19:48.291Z,1.00
2022-09-06T16:22:18.262Z,1.00
2022-09-06T16:24:48.126Z,1.00
2022-09-06T16:27:20.659Z,1.00
2022-09-06T16:29:50.546Z,1.00
2022-09-06T16:32:20.658Z,1.00
2022-09-06T16:34:50.701Z,1.00
2022-09-06T16:37:20.842Z,1.00
2022-09-06T16:39:50.874Z,1.00
2022-09-06T16:42:23.370Z,1.00
2022-09-06T16:44:53.632Z,1.00
2022-09-06T16:47:23.624Z,1.00
2022-09-06T16:49:53.561Z,1.00
2022-09-06T16:52:23.805Z,1.00
2022-09-06T16:54:53.680Z,1.00
2022-09-06T16:57:26.216Z,1.00
2022-09-06T16:59:56.087Z,1.00
2022-09-06T17:02:26.040Z,1.00
2022-09-06T17:04:56.548Z,1.00
2022-09-06T17:07:26.601Z,1.00
2022-09-06T17:09:56.476Z,1.00
2022-09-06T17:12:29.367Z,1.00
2022-09-06T17:14:59.400Z,1.00
2022-09-06T17:17:27.746Z,1.00
2022-09-06T17:19:57.650Z,1.00
2022-09-06T17:22:27.624Z,1.00
2022-09-06T17:24:57.510Z,1.00
2022-09-06T17:27:29.997Z,1.00
2022-09-06T17:29:59.956Z,1.00
2022-09-06T17:32:31.024Z,1.00
2022-09-06T17:35:00.917Z,1.00
2022-09-06T17:37:32.706Z,1.00
2022-09-06T17:40:02.708Z,1.00
2022-09-06T17:42:35.312Z,1.00
2022-09-06T17:45:05.362Z,1.00
2022-09-06T17:47:37.121Z,1.00
2022-09-06T17:50:07.783Z,1.00
2022-09-06T17:52:38.139Z,1.00
2022-09-06T17:55:08.815Z,1.00
2022-09-06T17:57:41.511Z,1.00
2022-09-06T18:00:14.043Z,1.00
2022-09-06T18:02:44.387Z,1.00
2022-09-06T18:05:14.422Z,1.00
2022-09-06T18:07:45.312Z,1.00
2022-09-06T18:10:15.321Z,1.00
2022-09-06T18:12:48.408Z,1.00
2022-09-06T18:15:18.566Z,1.00
2022-09-06T18:17:48.961Z,1.00
2022-09-06T18:20:18.962Z,1.00
2022-09-06T18:22:48.879Z,1.00
2022-09-06T18:25:19.037Z,1.00
2022-09-06T18:27:51.588Z,1.00
2022-09-06T18:30:21.483Z,1.00
2022-09-06T18:32:51.382Z,1.00
2022-09-06T18:35:21.362Z,1.00
2022-09-06T18:37:51.306Z,1.00
2022-09-06T18:40:21.188Z,1.00
2022-09-06T18:42:53.685Z,1.00
2022-09-06T18:45:23.658Z,1.00
2022-09-06T18:47:53.581Z,1.00
2022-09-06T18:50:23.541Z,1.00
2022-09-06T18:52:53.928Z,1.00
2022-09-06T18:55:23.867Z,1.00
2022-09-06T18:57:56.978Z,1.00
2022-09-06T19:00:27.405Z,1.00
2022-09-06T19:02:57.422Z,1.00
2022-09-06T19:05:27.482Z,1.00
2022-09-06T19:07:57.490Z,1.00
2022-09-06T19:10:27.551Z,1.00
2022-09-06T19:13:00.808Z,1.00
2022-09-06T19:15:31.203Z,1.00
2022-09-06T19:18:01.178Z,1.00
2022-09-06T19:20:31.150Z,1.00
2022-09-06T19:23:01.108Z,1.00
2022-09-06T19:25:31.073Z,1.00
2022-09-06T19:28:03.664Z,1.00
2022-09-06T19:30:35.639Z,1.00
2022-09-06T19:33:05.604Z,1.00
2022-09-06T19:35:55.706Z,2.30
2022-09-06T19:38:37.364Z,1.00
2022-09-06T19:41:20.490Z,1.30
2022-09-06T19:43:56.521Z,1.50
2022-09-06T19:46:27.613Z,2.10
2022-09-06T19:48:58.865Z,1.20
2022-09-06T19:51:29.062Z,1.00
2022-09-06T19:54:00.439Z,1.00
2022-09-06T19:56:34.201Z,1.10
2022-09-06T19:59:08.742Z,1.00
2022-09-06T20:01:40.447Z,1.00
2022-09-06T20:04:12.429Z,1.60
2022-09-06T20:06:42.363Z,2.40
2022-09-06T20:09:13.547Z,3.10
2022-09-06T20:11:44.534Z,3.40
2022-09-06T20:14:17.039Z,3.00
2022-09-06T20:16:47.032Z,2.80
2022-09-06T20:19:17.104Z,2.70
2022-09-06T20:21:47.041Z,2.70
2022-09-06T20:24:17.040Z,3.10
2022-09-06T20:26:47.136Z,3.10
2022-09-06T20:29:20.061Z,3.90
2022-09-06T20:31:50.052Z,4.40
2022-09-06T20:34:21.367Z,4.80
2022-09-06T20:36:51.250Z,5.00
2022-09-06T20:39:21.183Z,4.60
2022-09-06T20:41:51.072Z,4.30
2022-09-06T20:44:23.608Z,3.80
2022-09-06T20:46:53.530Z,4.30
2022-09-06T20:49:23.413Z,4.60
2022-09-06T20:51:53.373Z,4.60
2022-09-06T20:54:23.329Z,4.20
2022-09-06T20:56:53.744Z,4.60
2022-09-06T20:59:26.703Z,4.40
2022-09-06T21:01:56.635Z,4.20
2022-09-06T21:04:26.900Z,4.40
2022-09-06T21:06:56.818Z,4.40
2022-09-06T21:09:26.741Z,3.90
2022-09-06T21:11:57.709Z,4.00
2022-09-06T21:14:30.426Z,4.10
2022-09-06T21:17:00.450Z,5.30
2022-09-06T21:19:30.353Z,5.80
2022-09-06T21:22:00.273Z,6.00
2022-09-06T21:24:30.172Z,5.20
2022-09-06T21:27:00.045Z,5.20
2022-09-06T21:29:34.765Z,4.80
2022-09-06T21:32:04.932Z,4.00
2022-09-06T21:34:34.874Z,4.70
2022-09-06T21:37:04.750Z,3.80
2022-09-06T21:39:34.688Z,3.20
2022-09-06T21:42:04.624Z,3.80
2022-09-06T21:44:37.094Z,4.00
2022-09-06T21:47:07.666Z,4.30
2022-09-06T21:49:38.459Z,4.70
2022-09-06T21:52:08.626Z,4.90
2022-09-06T21:54:38.524Z,5.30
2022-09-06T21:57:08.484Z,5.60
2022-09-06T21:59:41.508Z,6.40
2022-09-06T22:02:11.872Z,7.80
2022-09-06T22:04:42.994Z,8.50
2022-09-06T22:07:12.874Z,10.10
2022-09-06T22:09:42.752Z,9.90
2022-09-06T22:12:12.674Z,10.10
2022-09-06T22:14:45.696Z,9.50
2022-09-06T22:17:15.731Z,9.80
2022-09-06T22:19:45.622Z,10.30
2022-09-06T22:22:15.582Z,10.70
2022-09-06T22:24:45.456Z,11.70
2022-09-06T22:27:15.423Z,11.40
2022-09-06T22:29:47.954Z,10.60
2022-09-06T22:32:17.872Z,10.10
2022-09-06T22:34:47.969Z,10.70
2022-09-06T22:37:17.867Z,9.30
2022-09-06T22:39:48.086Z,10.20
2022-09-06T22:42:18.039Z,9.60
2022-09-06T22:44:50.516Z,8.60
2022-09-06T22:47:20.535Z,8.60
2022-09-06T22:49:51.734Z,7.90
2022-09-06T22:52:22.094Z,8.10
2022-09-06T22:54:52.015Z,7.20
2022-09-06T22:57:21.955Z,7.60
2022-09-06T22:59:54.431Z,7.40
2022-09-06T23:02:24.349Z,7.30
2022-09-06T23:04:54.642Z,7.20
2022-09-06T23:07:24.596Z,7.10
2022-09-06T23:09:54.634Z,7.40
2022-09-06T23:12:24.488Z,8.20
2022-09-06T23:14:57.010Z,9.00
2022-09-06T23:17:27.030Z,9.10
2022-09-06T23:19:56.968Z,9.10
2022-09-06T23:22:26.998Z,10.30
2022-09-06T23:24:56.928Z,10.10
2022-09-06T23:27:26.893Z,10.40
2022-09-06T23:29:59.376Z,10.40
2022-09-06T23:32:29.467Z,10.10
2022-09-06T23:34:59.437Z,9.20
2022-09-06T23:37:29.359Z,8.80
2022-09-06T23:39:59.300Z,8.60
2022-09-06T23:42:29.389Z,7.50
2022-09-06T23:45:01.871Z,7.00
2022-09-06T23:47:31.788Z,6.90
2022-09-06T23:50:01.705Z,6.40
2022-09-06T23:52:31.604Z,6.20
2022-09-06T23:55:01.487Z,5.00
2022-09-06T23:57:31.445Z,3.80
